METAR Data
IDs: Format: Raw Decoded Include TAF

Data at: 0859 UTC 26 Jan 2020

KLNL 260855Z AUTO 32005KT 7SM OVC006 M01/M02 A2981 RMK AO2 T10121020
KLNL 260835Z AUTO 30005KT 10SM OVC008 M01/M02 A2981 RMK AO2 T10121022
KLNL 260815Z AUTO 30003KT 10SM BKN008 BKN014 OVC021 M01/M02 A2981 RMK AO2 T10121022
KLNL 260755Z AUTO 31005KT 3SM -SN SCT008 BKN016 OVC100 M01/M02 A2981 RMK AO2 T10121022
KLNL 260735Z AUTO 31004KT 3SM -SN OVC006 M01/M02 A2980 RMK AO2 T10131021
KLNL 260715Z AUTO 30006KT 10SM OVC006 M01/M02 A2980 RMK AO2 T10131021
KLNL 260655Z AUTO 30004KT 10SM OVC008 M01/M02 A2980 RMK AO2 T10151023
KLNL 260635Z AUTO 32004KT 5SM -SN OVC008 M01/M02 A2981 RMK AO2 T10151023
KLNL 260615Z AUTO 30004KT 10SM OVC008 M01/M02 A2981 RMK AO2 T10151025
KLNL 260555Z AUTO 31005KT 7SM OVC010 M01/M02 A2981 RMK AO2 T10151025 11010 21020 400061020
KLNL 260535Z AUTO 31004KT 4SM -SN OVC010 M01/M02 A2981 RMK AO2 T10151025
KLNL 260515Z AUTO 32003KT 2SM -SN OVC012 M01/M02 A2982 RMK AO2 T10151025
KLNL 260455Z AUTO 32003KT 1 1/2SM -SN OVC012 M02/M02 A2981 RMK AO2 T10161025
KLNL 260435Z AUTO 32004KT 3SM -SN BKN010 OVC015 M01/M03 A2981 RMK AO2 T10151026
KLNL 260415Z AUTO 33005KT 4SM BR OVC010 M02/M03 A2981 RMK AO2 T10161027
KLNL 260355Z AUTO 32004KT 3SM -SN BKN008 OVC013 M02/M03 A2981 RMK AO2 T10161027
KLNL 260335Z AUTO 32004KT 4SM -SN OVC010 M02/M03 A2981 RMK AO2 T10181028
KLNL 260315Z AUTO 31004KT 4SM -SN OVC010 M02/M03 A2981 RMK AO2 T10191029
KLNL 260255Z AUTO 31003KT 3SM -SN OVC010 M02/M03 A2981 RMK AO2 T10171027
KLNL 260235Z AUTO 32003KT 1 3/4SM -SN OVC010 M02/M03 A2981 RMK AO2 T10161026
KLNL 260215Z AUTO 34003KT 1 1/2SM -SN OVC010 M02/M03 A2981 RMK AO2 T10161027
KLNL 260155Z AUTO 33005KT 3SM -SN BKN010 OVC016 M02/M03 A2981 RMK AO2 T10161030
KLNL 260135Z AUTO 34008KT 4SM -SN OVC010 M01/M03 A2981 RMK AO2 T10151030
KLNL 260115Z AUTO 35007KT 2 1/2SM -SN SCT008 BKN013 OVC028 M01/M03 A2982 RMK AO2 T10151028
KLNL 260055Z AUTO 34006KT 1 1/2SM -SN OVC010 M01/M03 A2981 RMK AO2 T10151028
KLNL 260035Z AUTO 34007KT 2SM -SN OVC010 M01/M03 A2981 RMK AO2 T10141027
KLNL 260015Z AUTO 34008KT 2SM -SN BKN008 OVC013 M01/M02 A2981 RMK AO2 T10111025
KLNL 252355Z AUTO 34006KT 2SM -SN SCT007 OVC015 M01/M02 A2981 RMK AO2 60001 T10101022 10006 21011
KLNL 252335Z AUTO 32006KT 2SM -SN SCT007 OVC017 M01/M02 A2980 RMK AO2 T10101025
KLNL 252315Z AUTO 33007KT 2 1/2SM -SN SCT008 BKN019 OVC023 M01/M02 A2980 RMK AO2 T10091023
KLNL 252255Z AUTO 34008KT 2SM -SN OVC008 M01/M02 A2980 RMK AO2 T10071020
KLNL 252235Z AUTO 34007KT 1 1/4SM -SN OVC008 00/M02 A2979 RMK AO2 T10051016
KLNL 252215Z AUTO 33006KT 1 1/4SM -SN SCT006 OVC013 00/M02 A2979 RMK AO2 T10031019
KLNL 252155Z AUTO 34008KT 7SM BKN012 OVC016 00/M02 A2979 RMK AO2 T00001018
KLNL 252135Z AUTO 34008KT 7SM -SN BKN008 OVC013 00/M02 A2979 RMK AO2 T00001016
KLNL 252115Z AUTO 34007KT 2SM -SN OVC008 00/M01 A2978 RMK AO2 T00001015
KLNL 252055Z AUTO 33005KT 2 1/2SM -SN SCT008 BKN012 OVC018 00/M01 A2979 RMK AO2 VIS 1 3/4V5 60001 T00021012
KLNL 252035Z AUTO 35008G14KT 4SM BR BKN010 BKN016 OVC060 00/M01 A2978 RMK AO2 T00041015
KLNL 252015Z AUTO 33007KT 7SM SCT010 BKN048 OVC060 00/M02 A2978 RMK AO2 T00011016
KLNL 251955Z AUTO 35010G15KT 10SM SCT009 BKN021 OVC046 00/M02 A2978 RMK AO2 T00021016
KLNL 251935Z AUTO 34010KT 2 1/2SM -SN SCT009 BKN015 OVC021 01/M01 A2978 RMK AO2 T00051013
KLNL 251915Z AUTO 33009KT 4SM -SN BKN011 BKN018 OVC037 01/M01 A2979 RMK AO2 T00051011
KLNL 251855Z AUTO 34007KT 3SM -SN BKN009 BKN014 OVC037 01/M01 A2979 RMK AO2 P0001 T00051013
KLNL 251835Z AUTO 34006KT 2 1/2SM -SN BKN009 BKN014 OVC030 01/M01 A2979 RMK AO2 T00051010
KLNL 251815Z AUTO 35008KT 2SM -SN OVC009 01/M01 A2979 RMK AO2 T00061007
KLNL 251755Z AUTO 34004KT 2 1/2SM -SN SCT007 BKN011 OVC036 01/M01 A2980 RMK AO2 T00051007 10006 21007
KLNL 251735Z AUTO 34006KT 3SM BR SCT007 BKN016 OVC036 01/M01 A2980 RMK AO2 T00061008
KLNL 251715Z AUTO 35008KT 2SM -SN BKN007 OVC015 01/00 A2981 RMK AO2 T00061005
KLNL 251655Z AUTO 35008KT 2 1/2SM -SN BKN009 OVC014 01/M01 A2981 RMK AO2 T00051007
KLNL 251635Z AUTO 01004KT 3SM -SN BKN010 OVC015 01/M01 A2981 RMK AO2 T00051007
KLNL 251615Z AUTO 35005KT 5SM BR OVC008 01/M01 A2981 RMK AO2 T00051010
KLNL 251555Z AUTO 35006KT 5SM BR OVC010 00/M01 A2981 RMK AO2 T00021010
KLNL 251535Z AUTO 36005KT 4SM BR OVC010 00/M01 A2980 RMK AO2 T00001010
KLNL 251515Z AUTO 36004KT 2 1/2SM -SN OVC008 00/M01 A2981 RMK AO2 T10011011
KLNL 251455Z AUTO 35005KT 1 1/2SM -SN OVC008 00/M01 A2980 RMK AO2 T10021010
KLNL 251435Z AUTO 36005KT 1 1/4SM -SN OVC008 00/M01 A2981 RMK AO2 T10051011
KLNL 251415Z AUTO 36004KT 1 1/2SM -SN OVC008 00/M01 A2981 RMK AO2 T10051012
KLNL 251355Z AUTO 01005KT 1 1/2SM -SN OVC008 00/M01 A2981 RMK AO2 T10051012
KLNL 251335Z AUTO 36005KT 1 1/4SM -SN OVC006 M01/M01 A2980 RMK AO2 T10061013
KLNL 251315Z AUTO 36006KT 1 1/4SM -SN OVC009 M01/M01 A2980 RMK AO2 T10061013
KLNL 251255Z AUTO 36006KT 1 1/2SM -SN OVC009 M01/M01 A2980 RMK AO2 T10061013
KLNL 251235Z AUTO 36005KT 1 1/2SM -SN OVC007 M01/M01 A2980 RMK AO2 T10071015
KLNL 251215Z AUTO 01006KT 1 1/2SM -SN OVC007 M01/M01 A2980 RMK AO2 T10071015
KLNL 251155Z AUTO 35006KT 1 1/4SM -SN OVC007 M01/M01 A2979 RMK AO2 T10071015 11005 21008
KLNL 251135Z AUTO 36005KT 1 1/4SM -SN OVC007 M01/M01 A2980 RMK AO2 T10081015
KLNL 251115Z AUTO 36005KT 1 1/2SM -SN OVC009 M01/M01 A2980 RMK AO2 T10071015
KLNL 251055Z AUTO 36005KT 2SM -SN OVC010 M01/M01 A2979 RMK AO2 T10071015
KLNL 251035Z AUTO 36005KT 1 1/4SM -SN OVC008 M01/M01 A2979 RMK AO2 T10071014
KLNL 251015Z AUTO 03005KT 1SM -SN OVC006 M01/M01 A2979 RMK AO2 T10081015
KLNL 250955Z AUTO 03004KT 1SM -SN OVC006 M01/M01 A2979 RMK AO2 T10071015
KLNL 250935Z AUTO 03005KT 1 3/4SM -SN OVC011 M01/M02 A2980 RMK AO2 T10061016
KLNL 250915Z AUTO 02003KT 2 1/2SM -SN SCT009 BKN013 OVC023 M01/M01 A2980 RMK AO2 T10061015
KLNL 250855Z AUTO 04005KT 2 1/2SM -SN BKN009 BKN013 OVC050 M01/M01 A2981 RMK AO2 T10061015
KLNL 250835Z AUTO 03007KT 4SM -SN OVC009 00/M01 A2981 RMK AO2 T10051012
KLNL 250815Z AUTO 03005KT 1 1/4SM -SN OVC009 M01/M01 A2981 RMK AO2 T10061013
KLNL 250755Z AUTO 01005KT 1 1/4SM -SN SCT005 OVC009 00/M01 A2982 RMK AO2 T10051012
KLNL 250735Z AUTO 02005KT 2SM -SN BKN005 BKN009 OVC024 00/M01 A2982 RMK AO2 T10051012
KLNL 250715Z AUTO 02005KT 1 3/4SM -SN BKN005 BKN010 OVC017 M01/M01 A2983 RMK AO2 T10061013
KLNL 250655Z AUTO 01006KT 1 3/4SM -SN OVC009 00/M01 A2983 RMK AO2 T10051012
KLNL 250635Z AUTO 36005KT 2SM -SN OVC009 00/M01 A2984 RMK AO2 T10051012
KLNL 250615Z AUTO 01005KT 1 1/2SM -SN OVC007 00/M01 A2985 RMK AO2 T10051012
KLNL 250555Z AUTO 01006KT 5SM BR OVC007 00/M01 A2985 RMK AO2 T10051011 10001 21005 400071015
KLNL 250535Z AUTO 02005KT 1 3/4SM -SN OVC007 00/M01 A2985 RMK AO2 T10031010
KLNL 250515Z AUTO 01006KT 1 1/2SM -SN OVC007 00/M01 A2986 RMK AO2 VIS 3/4V5 T10021010
KLNL 250455Z AUTO 02007KT 5SM BR OVC007 00/M01 A2985 RMK AO2 T10011008
KLNL 250435Z AUTO 03006KT 7SM OVC009 00/M01 A2986 RMK AO2 T00001007
KLNL 250415Z AUTO 03005KT 5SM -SN OVC007 00/M01 A2987 RMK AO2 T00001006
KLNL 250355Z AUTO 04005KT 4SM -SN BKN007 OVC012 00/00 A2987 RMK AO2 T00001005
KLNL 250335Z AUTO 04005KT 7SM BKN007 OVC012 00/00 A2987 RMK AO2 T00001005
KLNL 250315Z AUTO 04005KT 4SM BR OVC007 00/00 A2988 RMK AO2 T00001005
KLNL 250255Z AUTO 04005KT 2 1/2SM -SN OVC007 00/00 A2989 RMK AO2 T00001002
KLNL 250235Z AUTO 03005KT 1 3/4SM -SN OVC005 00/00 A2990 RMK AO2 T00001002
KLNL 250215Z AUTO 04004KT 3SM BR OVC005 00/00 A2990 RMK AO2 T00001002
KLNL 250155Z AUTO 04003KT 4SM BR OVC005 00/00 A2991 RMK AO2 T00011001
KLNL 250135Z AUTO 04004KT 3SM BR OVC003 00/00 A2991 RMK AO2 T00010000
KLNL 250115Z AUTO 04004KT 2SM BR OVC003 00/00 A2992 RMK AO2 T00010000
KLNL 250055Z AUTO 04004KT 2SM -SN OVC003 00/00 A2992 RMK AO2 T00010000
KLNL 250035Z AUTO 04005KT 2 1/2SM BR OVC005 00/00 A2992 RMK AO2 T00010000
KLNL 250015Z AUTO 05004KT 2 1/2SM BR OVC005 00/00 A2992 RMK AO2 T00011001
KLNL 242355Z AUTO 04004KT 5SM BR OVC007 00/00 A2992 RMK AO2 T00011002 10007 20001
KLNL 242335Z AUTO 04004KT 2 1/2SM UP OVC005 00/00 A2992 RMK AO2 T00011003
KLNL 242315Z AUTO 05003KT 4SM UP OVC007 00/00 A2993 RMK AO2 T00011003
KLNL 242255Z AUTO 05003KT 4SM -SN OVC007 00/00 A2993 RMK AO2 T00021005
KLNL 242235Z AUTO 04004KT 3SM -SN OVC007 00/00 A2993 RMK AO2 T00031005
KLNL 242215Z AUTO 05004KT 10SM OVC009 01/M01 A2993 RMK AO2 T00051006
KLNL 242155Z AUTO 05005KT 10SM OVC009 01/00 A2993 RMK AO2 T00061005
KLNL 242135Z AUTO 06005KT 5SM -SN OVC009 01/00 A2993 RMK AO2 T00061003
KLNL 242115Z AUTO 04004KT 7SM OVC009 01/00 A2993 RMK AO2 T00051005